createdAt,value
2023-04-10T00:00:03.979Z,50.16
2023-04-10T00:01:04.073Z,50.15
2023-04-10T00:02:03.999Z,49.86
2023-04-10T00:03:04.529Z,48.90
2023-04-10T00:04:04.015Z,49.53
2023-04-10T00:05:03.956Z,46.96
2023-04-10T00:06:03.948Z,48.53
2023-04-10T00:07:04.113Z,49.95
2023-04-10T00:08:03.905Z,49.72
2023-04-10T00:09:04.098Z,49.78
2023-04-10T00:10:04.063Z,47.63
2023-04-10T00:11:03.894Z,50.56
2023-04-10T00:12:03.954Z,49.78
2023-04-10T00:13:03.958Z,48.64
2023-04-10T00:14:04.088Z,49.51
2023-04-10T00:15:03.897Z,50.70
2023-04-10T00:16:03.883Z,47.55
2023-04-10T00:17:03.864Z,47.37
2023-04-10T00:18:03.862Z,49.89
2023-04-10T00:19:03.883Z,49.96
2023-04-10T00:20:03.832Z,47.66
2023-04-10T00:21:03.822Z,48.14
2023-04-10T00:22:03.835Z,48.11
2023-04-10T00:23:03.887Z,48.55
2023-04-10T00:24:03.812Z,48.19
2023-04-10T00:25:03.798Z,48.49
2023-04-10T00:26:03.795Z,49.16
2023-04-10T00:27:03.828Z,48.66
2023-04-10T00:28:03.834Z,48.23
2023-04-10T00:29:03.802Z,49.03
2023-04-10T00:30:03.794Z,47.60
2023-04-10T00:31:03.821Z,49.28
2023-04-10T00:32:03.834Z,47.61
2023-04-10T00:33:03.845Z,47.63
2023-04-10T00:34:03.734Z,47.24
2023-04-10T00:35:03.794Z,46.96
2023-04-10T00:36:03.740Z,47.09
2023-04-10T00:37:03.772Z,47.60
2023-04-10T00:38:03.753Z,48.40
2023-04-10T00:39:03.706Z,49.61
2023-04-10T00:40:03.721Z,47.82
2023-04-10T00:41:03.815Z,49.67
2023-04-10T00:42:03.714Z,47.92
2023-04-10T00:43:03.671Z,48.65
2023-04-10T00:44:03.772Z,49.02
2023-04-10T00:45:03.650Z,50.63
2023-04-10T00:46:03.742Z,48.75
2023-04-10T00:47:03.657Z,49.16
2023-04-10T00:48:03.714Z,47.07
2023-04-10T00:49:03.640Z,49.40
2023-04-10T00:50:03.661Z,49.32
2023-04-10T00:51:03.677Z,48.64
2023-04-10T00:52:03.654Z,51.12
2023-04-10T00:53:03.628Z,49.51
2023-04-10T00:54:03.602Z,47.58
2023-04-10T00:55:03.600Z,47.10
2023-04-10T00:56:03.637Z,48.50
2023-04-10T00:57:03.635Z,48.82
2023-04-10T00:58:03.592Z,48.40
2023-04-10T00:59:05.729Z,50.61
2023-04-10T01:00:03.666Z,48.40
2023-04-10T01:01:03.631Z,48.07
2023-04-10T01:02:03.794Z,47.03
2023-04-10T01:03:03.679Z,49.15
2023-04-10T01:04:03.743Z,47.62
2023-04-10T01:05:03.524Z,47.38
2023-04-10T01:06:03.552Z,49.96
2023-04-10T01:07:03.533Z,48.10
2023-04-10T01:08:03.565Z,48.73
2023-04-10T01:09:03.513Z,47.91
2023-04-10T01:10:03.490Z,49.80
2023-04-10T01:11:03.500Z,47.53
2023-04-10T01:12:03.518Z,47.67
2023-04-10T01:13:03.519Z,47.73
2023-04-10T01:14:03.521Z,50.66
2023-04-10T01:15:03.488Z,49.91
2023-04-10T01:16:03.469Z,48.33
2023-04-10T01:17:03.641Z,48.20
2023-04-10T01:18:03.505Z,48.66
2023-04-10T01:19:03.459Z,47.41
2023-04-10T01:20:03.463Z,50.09
2023-04-10T01:21:03.456Z,50.76
2023-04-10T01:22:03.428Z,49.05
2023-04-10T01:23:03.463Z,48.57
2023-04-10T01:24:03.415Z,49.73
2023-04-10T01:25:03.402Z,51.05
2023-04-10T01:26:03.417Z,47.95
2023-04-10T01:27:03.417Z,47.54
2023-04-10T01:28:03.373Z,47.64
2023-04-10T01:29:04.580Z,46.94
2023-04-10T01:30:03.416Z,48.43
2023-04-10T01:31:03.408Z,47.95
2023-04-10T01:32:03.385Z,46.85
2023-04-10T01:33:03.381Z,46.93
2023-04-10T01:34:03.342Z,46.80
2023-04-10T01:35:03.387Z,46.72
2023-04-10T01:36:03.451Z,47.84
2023-04-10T01:37:03.317Z,47.09
2023-04-10T01:38:03.325Z,46.65
2023-04-10T01:39:03.319Z,46.93
2023-04-10T01:40:03.376Z,48.59
2023-04-10T01:41:03.282Z,49.56
2023-04-10T01:42:03.318Z,47.53
2023-04-10T01:43:03.292Z,48.74
2023-04-10T01:44:03.258Z,47.87
2023-04-10T01:45:03.394Z,46.66
2023-04-10T01:46:03.289Z,50.86
2023-04-10T01:47:03.293Z,47.81
2023-04-10T01:48:03.306Z,46.85
2023-04-10T01:49:03.230Z,46.86
2023-04-10T01:50:03.239Z,48.01
2023-04-10T01:51:03.244Z,47.57
2023-04-10T01:52:03.254Z,48.19
2023-04-10T01:53:03.291Z,47.37
2023-04-10T01:54:04.549Z,47.34
2023-04-10T01:55:03.193Z,46.89
2023-04-10T01:56:03.248Z,46.90
2023-04-10T01:57:03.186Z,47.33
2023-04-10T01:58:03.197Z,48.44
2023-04-10T01:59:03.238Z,48.15
2023-04-10T02:00:03.301Z,46.94
2023-04-10T02:01:03.189Z,47.73
2023-04-10T02:02:03.302Z,47.01
2023-04-10T02:03:03.284Z,48.06
2023-04-10T02:04:03.239Z,47.26
2023-04-10T02:05:03.287Z,47.95
2023-04-10T02:06:03.135Z,46.78
2023-04-10T02:07:03.163Z,48.10
2023-04-10T02:08:03.178Z,47.17
2023-04-10T02:09:03.117Z,48.36
2023-04-10T02:10:03.099Z,46.66
2023-04-10T02:11:03.096Z,46.64
2023-04-10T02:12:03.095Z,47.92
2023-04-10T02:13:03.149Z,46.59
2023-04-10T02:14:03.142Z,46.52
2023-04-10T02:15:03.080Z,46.68
2023-04-10T02:16:04.333Z,46.98
2023-04-10T02:17:04.056Z,46.94
2023-04-10T02:18:03.082Z,50.87
2023-04-10T02:19:03.102Z,47.34
2023-04-10T02:20:03.024Z,49.12
2023-04-10T02:21:03.015Z,48.91
2023-04-10T02:22:04.013Z,47.80
2023-04-10T02:23:03.010Z,46.81
2023-04-10T02:24:03.055Z,49.31
2023-04-10T02:25:02.991Z,48.04
2023-04-10T02:26:02.989Z,47.71
2023-04-10T02:27:03.029Z,46.92
2023-04-10T02:28:02.983Z,47.11
2023-04-10T02:29:03.015Z,46.96
2023-04-10T02:30:02.979Z,47.81
2023-04-10T02:31:02.997Z,47.21
2023-04-10T02:32:02.959Z,47.10
2023-04-10T02:33:03.019Z,47.56
2023-04-10T02:34:02.975Z,51.13
2023-04-10T02:35:02.937Z,49.76
2023-04-10T02:36:02.994Z,47.94
2023-04-10T02:37:02.940Z,47.43
2023-04-10T02:38:02.912Z,48.27
2023-04-10T02:39:02.957Z,50.33
2023-04-10T02:40:02.945Z,46.75
2023-04-10T02:41:02.944Z,47.36
2023-04-10T02:42:02.881Z,49.72
2023-04-10T02:43:02.935Z,48.05
2023-04-10T02:44:02.892Z,46.90
2023-04-10T02:45:02.867Z,46.95
2023-04-10T02:46:02.889Z,48.93
2023-04-10T02:47:02.920Z,46.92
2023-04-10T02:48:03.022Z,48.47
2023-04-10T02:49:02.841Z,47.48
2023-04-10T02:50:02.884Z,46.91
2023-04-10T02:51:02.871Z,47.06
2023-04-10T02:52:02.864Z,47.87
2023-04-10T02:53:02.816Z,49.88
2023-04-10T02:54:02.837Z,48.81
2023-04-10T02:55:02.810Z,49.66
2023-04-10T02:56:02.889Z,48.25
2023-04-10T02:57:02.891Z,47.11
2023-04-10T02:58:02.802Z,47.13
2023-04-10T02:59:02.783Z,47.44
2023-04-10T03:00:02.806Z,48.12
2023-04-10T03:01:02.789Z,46.99
2023-04-10T03:02:03.206Z,46.75
2023-04-10T03:03:02.909Z,48.08
2023-04-10T03:04:02.822Z,47.60
2023-04-10T03:05:02.759Z,48.01
2023-04-10T03:06:02.774Z,46.93
2023-04-10T03:07:02.790Z,48.03
2023-04-10T03:08:02.724Z,47.91
2023-04-10T03:09:02.737Z,48.28
2023-04-10T03:10:02.711Z,47.54
2023-04-10T03:11:02.710Z,47.45
2023-04-10T03:12:02.738Z,47.52
2023-04-10T03:13:02.756Z,47.27
2023-04-10T03:14:02.694Z,48.05
2023-04-10T03:15:02.706Z,49.27
2023-04-10T03:16:02.742Z,47.87
2023-04-10T03:17:02.652Z,48.51
2023-04-10T03:18:02.733Z,47.67
2023-04-10T03:19:02.649Z,52.41
2023-04-10T03:20:02.632Z,48.12
2023-04-10T03:21:02.622Z,47.43
2023-04-10T03:22:02.645Z,47.56
2023-04-10T03:23:02.627Z,48.32
2023-04-10T03:24:02.683Z,48.47
2023-04-10T03:25:02.630Z,48.16
2023-04-10T03:26:02.647Z,47.77
2023-04-10T03:27:02.609Z,47.98
2023-04-10T03:28:02.626Z,47.15
2023-04-10T03:29:02.622Z,46.97
2023-04-10T03:30:02.614Z,47.08
2023-04-10T03:31:02.584Z,50.52
2023-04-10T03:32:13.307Z,48.22
2023-04-10T03:33:03.614Z,51.30
2023-04-10T03:34:02.599Z,48.95
2023-04-10T03:35:02.641Z,47.50
2023-04-10T03:36:02.610Z,47.38
2023-04-10T03:37:02.565Z,48.18
2023-04-10T03:38:02.545Z,48.45
2023-04-10T03:39:02.517Z,46.87
2023-04-10T03:40:02.566Z,47.03
2023-04-10T03:41:02.549Z,48.24
2023-04-10T03:42:02.618Z,47.13
2023-04-10T03:43:02.539Z,47.85
2023-04-10T03:44:02.480Z,49.34
2023-04-10T03:45:02.499Z,50.75
2023-04-10T03:46:03.557Z,48.25
2023-04-10T03:47:02.492Z,51.03
2023-04-10T03:48:02.515Z,48.84
2023-04-10T03:49:02.446Z,49.90
2023-04-10T03:50:02.488Z,50.53
2023-04-10T03:51:02.437Z,52.02
2023-04-10T03:52:02.416Z,51.15
2023-04-10T03:53:02.418Z,50.26
2023-04-10T03:54:02.443Z,50.49
2023-04-10T03:55:02.466Z,50.87
2023-04-10T03:56:02.457Z,50.21
2023-04-10T03:57:02.472Z,50.55
2023-04-10T03:58:02.404Z,51.34
2023-04-10T03:59:02.381Z,50.72
2023-04-10T04:00:02.415Z,50.27
2023-04-10T04:01:02.403Z,50.28
2023-04-10T04:02:02.429Z,50.92
2023-04-10T04:03:02.576Z,51.48
2023-04-10T04:04:02.519Z,51.36
2023-04-10T04:05:02.442Z,51.49
2023-04-10T04:06:02.380Z,52.64
2023-04-10T04:07:02.401Z,50.39
2023-04-10T04:08:02.350Z,51.26
2023-04-10T04:09:02.316Z,53.38
2023-04-10T04:10:02.337Z,50.75
2023-04-10T04:11:02.291Z,51.02
2023-04-10T04:12:02.348Z,50.93
2023-04-10T04:13:02.299Z,49.90
2023-04-10T04:14:02.398Z,49.15
2023-04-10T04:15:02.280Z,51.42
2023-04-10T04:16:02.269Z,51.26
2023-04-10T04:17:02.338Z,51.82
2023-04-10T04:18:02.314Z,51.04
2023-04-10T04:19:02.303Z,48.67
2023-04-10T04:20:02.314Z,50.62
2023-04-10T04:21:02.239Z,51.83
2023-04-10T04:22:02.256Z,49.97
2023-04-10T04:23:02.216Z,49.42
2023-04-10T04:24:02.238Z,50.43
2023-04-10T04:25:02.246Z,50.41
2023-04-10T04:26:02.197Z,50.97
2023-04-10T04:27:02.213Z,50.97
2023-04-10T04:28:02.213Z,49.90
2023-04-10T04:29:02.249Z,51.57
2023-04-10T04:30:02.180Z,50.11
2023-04-10T04:31:02.180Z,51.30
2023-04-10T04:32:02.191Z,51.53
2023-04-10T04:33:02.184Z,52.68
2023-04-10T04:34:02.252Z,50.09
2023-04-10T04:35:02.153Z,51.67
2023-04-10T04:36:02.283Z,52.67
2023-04-10T04:37:02.160Z,49.78
2023-04-10T04:38:02.129Z,53.05
2023-04-10T04:39:02.154Z,49.86
2023-04-10T04:40:02.204Z,49.49
2023-04-10T04:41:02.097Z,53.08
2023-04-10T04:42:02.090Z,50.20
2023-04-10T04:43:02.114Z,50.67
2023-04-10T04:44:02.110Z,50.25
2023-04-10T04:45:02.109Z,50.17
2023-04-10T04:46:02.126Z,50.10
2023-04-10T04:47:02.077Z,48.79
2023-04-10T04:48:02.117Z,50.05
2023-04-10T04:49:02.149Z,51.18
2023-04-10T04:50:02.098Z,49.87
2023-04-10T04:51:02.041Z,51.86
2023-04-10T04:52:02.088Z,48.96
2023-04-10T04:53:02.033Z,48.47
2023-04-10T04:54:02.026Z,50.45
2023-04-10T04:55:02.071Z,48.58
2023-04-10T04:56:02.078Z,49.51
2023-04-10T04:57:02.006Z,51.44
2023-04-10T04:58:02.011Z,52.47
2023-04-10T04:59:01.990Z,51.64
2023-04-10T05:00:02.074Z,50.89
2023-04-10T05:01:02.054Z,51.37
2023-04-10T05:02:02.200Z,59.17
2023-04-10T05:03:02.108Z,60.62
2023-04-10T05:04:02.129Z,60.83
2023-04-10T05:05:02.007Z,50.45
2023-04-10T05:06:01.976Z,50.37
2023-04-10T05:07:01.996Z,49.20
2023-04-10T05:08:01.955Z,52.80
2023-04-10T05:09:01.959Z,49.43
2023-04-10T05:10:01.963Z,50.58
2023-04-10T05:11:01.926Z,49.73
2023-04-10T05:12:01.946Z,50.42
2023-04-10T05:13:01.922Z,51.51
2023-04-10T05:14:01.944Z,52.04
2023-04-10T05:15:01.885Z,51.72
2023-04-10T05:16:01.896Z,52.17
2023-04-10T05:17:03.637Z,53.40
2023-04-10T05:18:02.978Z,51.29
2023-04-10T05:19:01.915Z,50.89
2023-04-10T05:20:01.859Z,49.68
2023-04-10T05:21:01.833Z,53.19
2023-04-10T05:22:01.883Z,52.15
2023-04-10T05:23:01.827Z,47.74
2023-04-10T05:24:01.837Z,49.72
2023-04-10T05:25:01.843Z,47.90
2023-04-10T05:26:01.804Z,48.39
2023-04-10T05:27:01.893Z,50.13
2023-04-10T05:28:01.798Z,47.39
2023-04-10T05:29:01.823Z,46.64
2023-04-10T05:30:01.801Z,47.71
2023-04-10T05:31:01.780Z,49.75
2023-04-10T05:32:01.846Z,47.65
2023-04-10T05:33:01.891Z,49.26
2023-04-10T05:34:01.856Z,50.54
2023-04-10T05:35:01.757Z,48.74
2023-04-10T05:36:01.907Z,50.21
2023-04-10T05:37:01.743Z,51.81
2023-04-10T05:38:01.803Z,50.94
2023-04-10T05:39:01.745Z,51.73
2023-04-10T05:40:01.732Z,49.79
2023-04-10T05:41:01.731Z,50.81
2023-04-10T05:42:01.705Z,48.20
2023-04-10T05:43:01.739Z,51.00
2023-04-10T05:44:01.713Z,51.21
2023-04-10T05:45:01.688Z,49.71
2023-04-10T05:46:01.827Z,51.95
2023-04-10T05:47:01.684Z,52.19
2023-04-10T05:48:01.788Z,51.61
2023-04-10T05:49:01.726Z,52.09
2023-04-10T05:50:01.706Z,51.40
2023-04-10T05:51:01.722Z,48.34
2023-04-10T05:52:01.668Z,50.25
2023-04-10T05:53:01.650Z,49.31
2023-04-10T05:54:01.690Z,49.10
2023-04-10T05:55:01.635Z,53.20
2023-04-10T05:56:01.641Z,49.67
2023-04-10T05:57:01.666Z,47.79
2023-04-10T05:58:01.625Z,47.22
2023-04-10T05:59:01.601Z,50.05
2023-04-10T06:00:01.596Z,49.26
2023-04-10T06:01:01.640Z,51.51
2023-04-10T06:02:01.684Z,50.13
2023-04-10T06:03:01.657Z,49.23
2023-04-10T06:04:01.724Z,48.39
2023-04-10T06:05:01.595Z,48.64
2023-04-10T06:06:01.602Z,49.84
2023-04-10T06:07:01.549Z,51.69
2023-04-10T06:08:01.571Z,49.65
2023-04-10T06:09:01.550Z,51.23
2023-04-10T06:10:01.506Z,51.62
2023-04-10T06:11:01.547Z,50.56
2023-04-10T06:12:01.523Z,49.74
2023-04-10T06:13:01.547Z,51.69
2023-04-10T06:14:01.498Z,50.53
2023-04-10T06:15:01.500Z,52.48
2023-04-10T06:16:02.160Z,50.09
2023-04-10T06:17:01.484Z,49.60
2023-04-10T06:18:01.577Z,49.67
2023-04-10T06:19:01.487Z,49.23
2023-04-10T06:20:01.536Z,49.57
2023-04-10T06:21:01.469Z,50.98
2023-04-10T06:22:01.529Z,50.64
2023-04-10T06:23:01.438Z,49.08
2023-04-10T06:24:01.452Z,51.00
2023-04-10T06:25:01.449Z,49.33
2023-04-10T06:26:01.497Z,48.90
2023-04-10T06:27:01.536Z,49.49
2023-04-10T06:28:01.440Z,49.20
2023-04-10T06:29:01.519Z,48.47
2023-04-10T06:30:01.375Z,50.01
2023-04-10T06:31:01.531Z,51.20
2023-04-10T06:32:01.412Z,52.33
2023-04-10T06:33:01.403Z,52.29
2023-04-10T06:34:01.427Z,50.44
2023-04-10T06:35:01.571Z,50.45
2023-04-10T06:36:01.410Z,51.44
2023-04-10T06:37:01.462Z,51.99
2023-04-10T06:38:01.476Z,53.08
2023-04-10T06:39:01.354Z,51.46
2023-04-10T06:40:01.399Z,52.76
2023-04-10T06:41:01.328Z,54.54
2023-04-10T06:42:01.359Z,52.19
2023-04-10T06:43:01.412Z,50.86
2023-04-10T06:44:03.287Z,50.09
2023-04-10T06:45:02.426Z,50.78
2023-04-10T06:46:01.590Z,50.10
2023-04-10T06:47:01.444Z,52.03
2023-04-10T06:48:01.467Z,51.08
2023-04-10T06:49:01.345Z,51.76
2023-04-10T06:50:01.339Z,50.58
2023-04-10T06:51:01.404Z,49.88
2023-04-10T06:52:01.398Z,52.20
2023-04-10T06:53:01.342Z,51.26
2023-04-10T06:54:01.341Z,51.49
2023-04-10T06:55:01.353Z,51.48
2023-04-10T06:56:03.365Z,53.36
2023-04-10T06:57:01.345Z,51.99
2023-04-10T06:58:01.373Z,49.52
2023-04-10T06:59:01.368Z,53.48
2023-04-10T07:00:01.265Z,49.57
2023-04-10T07:01:01.489Z,52.07
2023-04-10T07:02:01.479Z,50.25
2023-04-10T07:03:01.363Z,50.12
2023-04-10T07:04:01.291Z,50.86
2023-04-10T07:05:01.209Z,52.10
2023-04-10T07:06:01.233Z,52.60
2023-04-10T07:07:01.196Z,51.28
2023-04-10T07:08:01.421Z,48.90
2023-04-10T07:09:01.200Z,50.83
2023-04-10T07:10:01.484Z,51.71
2023-04-10T07:11:01.296Z,50.61
2023-04-10T07:12:01.289Z,50.49
2023-04-10T07:13:01.321Z,49.83
2023-04-10T07:14:01.157Z,49.07
2023-04-10T07:15:01.208Z,50.16
2023-04-10T07:16:01.212Z,49.28
2023-04-10T07:17:01.244Z,50.82
2023-04-10T07:18:01.269Z,50.31
2023-04-10T07:19:01.257Z,51.03
2023-04-10T07:20:01.154Z,52.21
2023-04-10T07:21:01.129Z,50.07
2023-04-10T07:22:01.200Z,50.66
2023-04-10T07:23:01.281Z,53.27
2023-04-10T07:24:01.151Z,51.88
2023-04-10T07:25:01.106Z,50.83
2023-04-10T07:26:01.118Z,50.48
2023-04-10T07:27:01.108Z,50.32
2023-04-10T07:28:01.093Z,52.37
2023-04-10T07:29:01.117Z,52.98
2023-04-10T07:30:01.232Z,52.52
2023-04-10T07:31:01.077Z,51.34
2023-04-10T07:32:01.180Z,51.08
2023-04-10T07:33:01.379Z,53.39
2023-04-10T07:34:01.246Z,51.13
2023-04-10T07:35:01.176Z,51.28
2023-04-10T07:36:01.093Z,50.88
2023-04-10T07:37:01.068Z,53.05
2023-04-10T07:38:01.047Z,52.74
2023-04-10T07:39:01.121Z,51.78
2023-04-10T07:40:01.148Z,48.93
2023-04-10T07:41:01.148Z,51.97
2023-04-10T07:42:01.125Z,51.55
2023-04-10T07:43:01.050Z,53.06
2023-04-10T07:44:01.144Z,53.46
2023-04-10T07:45:01.023Z,53.37
2023-04-10T07:46:01.041Z,50.65
2023-04-10T07:47:01.021Z,50.43
2023-04-10T07:48:00.998Z,53.66
2023-04-10T07:49:01.138Z,50.68
2023-04-10T07:50:01.031Z,50.98
2023-04-10T07:51:01.030Z,51.30
2023-04-10T07:52:00.974Z,51.28
2023-04-10T07:53:01.009Z,48.97
2023-04-10T07:54:00.974Z,50.10
2023-04-10T07:55:00.949Z,51.26
2023-04-10T07:56:01.028Z,52.04
2023-04-10T07:57:01.024Z,49.50
2023-04-10T07:58:01.055Z,49.48
2023-04-10T07:59:00.954Z,51.60
2023-04-10T08:00:00.950Z,53.27
2023-04-10T08:01:01.003Z,54.38
2023-04-10T08:02:01.014Z,53.93
2023-04-10T08:03:01.259Z,53.11
2023-04-10T08:04:03.863Z,49.71
2023-04-10T08:05:00.998Z,50.17
2023-04-10T08:06:00.928Z,48.57
2023-04-10T08:07:01.028Z,51.47
2023-04-10T08:08:00.934Z,53.35
2023-04-10T08:09:00.930Z,52.67
2023-04-10T08:10:00.862Z,47.65
2023-04-10T08:11:00.849Z,49.49
2023-04-10T08:12:00.852Z,49.22
2023-04-10T08:13:00.880Z,52.14
2023-04-10T08:14:00.851Z,51.94
2023-04-10T08:15:00.838Z,49.87
2023-04-10T08:16:00.907Z,51.93
2023-04-10T08:17:00.887Z,50.85
2023-04-10T08:18:00.868Z,51.13
2023-04-10T08:19:00.831Z,51.01
2023-04-10T08:20:00.782Z,50.51
2023-04-10T08:21:00.842Z,52.60
2023-04-10T08:22:00.788Z,51.36
2023-04-10T08:23:09.179Z,50.83
2023-04-10T08:24:02.770Z,46.98
2023-04-10T08:25:00.768Z,49.90
2023-04-10T08:26:00.762Z,52.77
2023-04-10T08:27:00.758Z,51.81
2023-04-10T08:28:00.766Z,51.20
2023-04-10T08:29:00.889Z,53.65
2023-04-10T08:30:00.732Z,52.20
2023-04-10T08:31:00.748Z,51.81
2023-04-10T08:32:00.748Z,49.58
2023-04-10T08:33:00.716Z,51.65
2023-04-10T08:34:00.796Z,49.72
2023-04-10T08:35:00.697Z,52.08
2023-04-10T08:36:00.700Z,53.49
2023-04-10T08:37:00.670Z,52.55
2023-04-10T08:38:12.620Z,55.42
2023-04-10T08:39:02.685Z,53.52
2023-04-10T08:40:00.651Z,52.05
2023-04-10T08:41:00.655Z,50.96
2023-04-10T08:42:00.652Z,53.28
2023-04-10T08:43:00.639Z,52.76
2023-04-10T08:44:00.668Z,52.66
2023-04-10T08:45:00.652Z,55.32
2023-04-10T08:46:00.640Z,52.86
2023-04-10T08:47:00.610Z,52.61
2023-04-10T08:48:00.680Z,51.42
2023-04-10T08:49:00.655Z,53.21
2023-04-10T08:50:00.620Z,52.47
2023-04-10T08:51:00.573Z,52.87
2023-04-10T08:52:00.618Z,52.97
2023-04-10T08:53:00.597Z,53.41
2023-04-10T08:54:00.561Z,52.95
2023-04-10T08:55:00.589Z,49.33
2023-04-10T08:56:00.542Z,50.62
2023-04-10T08:57:00.573Z,52.17
2023-04-10T08:58:01.725Z,53.13
2023-04-10T08:59:01.511Z,53.21
2023-04-10T09:00:04.039Z,52.70
2023-04-10T09:01:01.498Z,54.11
2023-04-10T09:02:00.523Z,57.19
2023-04-10T09:03:00.645Z,57.09
2023-04-10T09:04:01.075Z,56.70
2023-04-10T09:05:00.513Z,51.63
2023-04-10T09:06:00.476Z,50.78
2023-04-10T09:07:00.530Z,50.78
2023-04-10T09:08:00.457Z,53.40
2023-04-10T09:10:00.452Z,52.20
2023-04-10T09:11:00.443Z,50.11
2023-04-10T09:12:00.747Z,54.56
2023-04-10T09:13:00.396Z,50.96
2023-04-10T09:14:00.390Z,52.77
2023-04-10T09:15:00.422Z,52.10
2023-04-10T09:16:00.651Z,50.50
2023-04-10T09:17:00.413Z,53.68
2023-04-10T09:18:00.379Z,52.46
2023-04-10T09:19:00.361Z,50.40
2023-04-10T09:20:00.384Z,53.52
2023-04-10T09:21:00.405Z,51.68
2023-04-10T09:22:00.334Z,49.41
2023-04-10T09:23:00.310Z,50.84
2023-04-10T09:24:00.316Z,50.93
2023-04-10T09:25:00.324Z,53.77
2023-04-10T09:26:00.339Z,50.14
2023-04-10T09:27:00.286Z,52.33
2023-04-10T09:28:00.333Z,54.55
2023-04-10T09:29:00.300Z,51.60
2023-04-10T09:30:00.252Z,52.22
2023-04-10T09:31:00.259Z,52.26
2023-04-10T09:32:00.228Z,53.43
2023-04-10T09:33:02.000Z,54.14
2023-04-10T09:34:00.237Z,50.91
2023-04-10T09:35:00.225Z,52.34
2023-04-10T09:36:00.270Z,54.22
2023-04-10T09:37:00.244Z,51.94
2023-04-10T09:38:00.228Z,53.71
2023-04-10T09:39:00.206Z,53.42
2023-04-10T09:40:00.192Z,51.92
2023-04-10T09:41:00.182Z,51.74
2023-04-10T09:42:00.169Z,52.06
2023-04-10T09:43:00.191Z,55.18
2023-04-10T09:44:00.156Z,55.88
2023-04-10T09:45:00.236Z,53.34
2023-04-10T09:46:00.135Z,53.45
2023-04-10T09:47:00.343Z,53.47
2023-04-10T09:48:00.237Z,53.55
2023-04-10T09:49:00.123Z,53.43
2023-04-10T09:50:00.204Z,54.31
2023-04-10T09:51:00.108Z,55.19
2023-04-10T09:52:00.138Z,52.14
2023-04-10T09:53:00.119Z,52.61
2023-04-10T09:54:00.061Z,52.75
2023-04-10T09:55:00.125Z,52.55
2023-04-10T09:56:00.116Z,52.94
2023-04-10T09:57:00.042Z,55.17
2023-04-10T09:58:00.040Z,52.64
2023-04-10T09:59:00.115Z,53.79
2023-04-10T10:00:00.129Z,54.40
2023-04-10T10:01:00.085Z,54.78
2023-04-10T10:02:00.105Z,53.99
2023-04-10T10:03:00.065Z,54.49
2023-04-10T10:04:00.021Z,54.36
2023-04-10T10:05:00.069Z,52.22
2023-04-10T10:05:59.989Z,51.62
2023-04-10T10:06:59.966Z,51.97
2023-04-10T10:07:59.942Z,52.44
2023-04-10T10:08:59.925Z,54.59
2023-04-10T10:09:59.934Z,55.02
2023-04-10T10:10:59.986Z,53.07
2023-04-10T10:11:59.909Z,52.53
2023-04-10T10:12:59.960Z,51.84
2023-04-10T10:13:59.902Z,52.68
2023-04-10T10:14:59.905Z,50.85
2023-04-10T10:15:59.953Z,52.91
2023-04-10T10:16:59.906Z,55.44
2023-04-10T10:17:59.982Z,53.65
2023-04-10T10:18:59.862Z,53.08
2023-04-10T10:19:59.860Z,52.13
2023-04-10T10:20:59.891Z,53.51
2023-04-10T10:21:59.889Z,53.79
2023-04-10T10:22:59.858Z,52.92
2023-04-10T10:23:59.904Z,51.42
2023-04-10T10:24:59.818Z,53.69
2023-04-10T10:26:01.695Z,53.57
2023-04-10T10:26:59.888Z,54.01
2023-04-10T10:27:59.811Z,53.59
2023-04-10T10:28:59.800Z,51.89
2023-04-10T10:30:01.265Z,54.06
2023-04-10T10:31:00.777Z,51.75
2023-04-10T10:31:59.970Z,52.72
2023-04-10T10:32:59.937Z,52.65
2023-04-10T10:33:59.759Z,53.85
2023-04-10T10:34:59.762Z,50.86
2023-04-10T10:35:59.742Z,52.60
2023-04-10T10:36:59.797Z,52.26
2023-04-10T10:37:59.725Z,54.35
2023-04-10T10:38:59.852Z,52.81
2023-04-10T10:39:59.704Z,52.17
2023-04-10T10:40:59.713Z,53.98
2023-04-10T10:41:59.867Z,56.01
2023-04-10T10:43:00.719Z,53.54
2023-04-10T10:43:59.681Z,53.32
2023-04-10T10:44:59.829Z,49.85
2023-04-10T10:45:59.769Z,53.99
2023-04-10T10:47:00.647Z,54.30
2023-04-10T10:47:59.723Z,54.52
2023-04-10T10:48:59.645Z,51.91
2023-04-10T10:49:59.652Z,54.88
2023-04-10T10:50:59.636Z,52.74
2023-04-10T10:51:59.617Z,51.41
2023-04-10T10:52:59.686Z,51.83
2023-04-10T10:53:59.629Z,53.46
2023-04-10T10:54:59.927Z,54.93
2023-04-10T10:56:00.603Z,54.08
2023-04-10T10:56:59.590Z,55.66
2023-04-10T10:57:59.631Z,56.47
2023-04-10T10:58:59.573Z,56.47
2023-04-10T10:59:59.552Z,55.35
2023-04-10T11:00:59.605Z,53.74
2023-04-10T11:01:59.613Z,54.28
2023-04-10T11:02:59.621Z,54.34
2023-04-10T11:03:59.607Z,53.47
2023-04-10T11:04:59.538Z,55.86
2023-04-10T11:05:59.564Z,55.19
2023-04-10T11:06:59.546Z,57.20
2023-04-10T11:07:59.514Z,55.66
2023-04-10T11:08:59.521Z,55.16
2023-04-10T11:09:59.487Z,53.18
2023-04-10T11:10:59.501Z,51.49
2023-04-10T11:11:59.496Z,52.71
2023-04-10T11:12:59.465Z,52.56
2023-04-10T11:13:59.520Z,52.97
2023-04-10T11:14:59.463Z,50.41
2023-04-10T11:15:59.486Z,54.85
2023-04-10T11:16:59.517Z,55.94
2023-04-10T11:17:59.475Z,54.15
2023-04-10T11:19:13.117Z,55.24
2023-04-10T11:20:01.417Z,53.57
2023-04-10T11:20:59.423Z,53.97
2023-04-10T11:21:59.441Z,55.70
2023-04-10T11:22:59.391Z,52.26
2023-04-10T11:23:59.494Z,55.39
2023-04-10T11:24:59.405Z,55.28
2023-04-10T11:25:59.377Z,55.05
2023-04-10T11:26:59.413Z,53.43
2023-04-10T11:27:59.370Z,52.72
2023-04-10T11:28:59.353Z,52.66
2023-04-10T11:29:59.387Z,54.16
2023-04-10T11:30:59.342Z,56.27
2023-04-10T11:31:59.392Z,55.47
2023-04-10T11:32:59.331Z,53.20
2023-04-10T11:33:59.303Z,54.90
2023-04-10T11:34:59.310Z,53.32
2023-04-10T11:35:59.350Z,56.89
2023-04-10T11:36:59.299Z,54.77
2023-04-10T11:37:59.269Z,55.17
2023-04-10T11:38:59.275Z,54.89
2023-04-10T11:39:59.253Z,55.78
2023-04-10T11:40:59.308Z,54.62
2023-04-10T11:41:59.302Z,54.07
2023-04-10T11:42:59.284Z,55.28
2023-04-10T11:44:00.243Z,55.03
2023-04-10T11:44:59.265Z,57.62
2023-04-10T11:45:59.310Z,55.84
2023-04-10T11:46:59.240Z,54.08
2023-04-10T11:47:59.337Z,54.95
2023-04-10T11:48:59.234Z,55.36
2023-04-10T11:49:59.218Z,57.46
2023-04-10T11:50:59.191Z,56.18
2023-04-10T11:51:59.220Z,54.88
2023-04-10T11:52:59.180Z,55.42
2023-04-10T11:53:59.184Z,55.27
2023-04-10T11:54:59.153Z,56.35
2023-04-10T11:55:59.144Z,56.51
2023-04-10T11:56:59.203Z,52.52
2023-04-10T11:57:59.179Z,53.61
2023-04-10T11:58:59.136Z,56.86
2023-04-10T11:59:59.109Z,55.33
2023-04-10T12:00:59.141Z,55.85
2023-04-10T12:01:59.237Z,54.72
2023-04-10T12:02:59.198Z,56.66
2023-04-10T12:03:59.262Z,56.26
2023-04-10T12:04:59.120Z,54.18
2023-04-10T12:05:59.071Z,54.14
2023-04-10T12:06:59.070Z,54.99
2023-04-10T12:07:59.094Z,56.20
2023-04-10T12:08:59.123Z,54.21
2023-04-10T12:09:59.058Z,56.32
2023-04-10T12:10:59.042Z,54.14
2023-04-10T12:11:59.044Z,57.58
2023-04-10T12:12:59.150Z,56.50
2023-04-10T12:13:59.079Z,54.41
2023-04-10T12:14:59.057Z,57.00
2023-04-10T12:15:59.133Z,53.70
2023-04-10T12:16:59.021Z,53.84
2023-04-10T12:17:59.206Z,54.02
2023-04-10T12:18:59.031Z,55.71
2023-04-10T12:19:58.985Z,55.38
2023-04-10T12:20:58.975Z,55.49
2023-04-10T12:21:59.008Z,55.59
2023-04-10T12:22:58.953Z,56.13
2023-04-10T12:23:58.976Z,57.01
2023-04-10T12:24:59.018Z,57.50
2023-04-10T12:25:58.968Z,57.09
2023-04-10T12:26:59.681Z,56.82
2023-04-10T12:27:58.939Z,55.42
2023-04-10T12:28:58.913Z,56.03
2023-04-10T12:29:58.966Z,55.10
2023-04-10T12:30:58.939Z,56.30
2023-04-10T12:31:58.970Z,56.47
2023-04-10T12:32:58.970Z,54.17
2023-04-10T12:33:59.092Z,56.86
2023-04-10T12:34:59.294Z,54.77
2023-04-10T12:35:58.904Z,55.35
2023-04-10T12:36:58.909Z,55.96
2023-04-10T12:37:58.930Z,55.54
2023-04-10T12:38:58.887Z,56.62
2023-04-10T12:39:58.933Z,57.15
2023-04-10T12:40:58.847Z,54.86
2023-04-10T12:41:58.848Z,55.34
2023-04-10T12:42:58.814Z,55.96
2023-04-10T12:43:58.848Z,56.07
2023-04-10T12:44:58.873Z,56.33
2023-04-10T12:45:58.818Z,56.17
2023-04-10T12:46:58.835Z,56.33
2023-04-10T12:47:58.838Z,54.90
2023-04-10T12:48:58.791Z,54.75
2023-04-10T12:49:58.772Z,56.03
2023-04-10T12:50:58.795Z,57.78
2023-04-10T12:51:58.799Z,56.86
2023-04-10T12:52:58.807Z,58.19